sensor_id;sensor_type;location;lat;lon;timestamp;temperature;humidity
27759;DHT22;15148;48.972;12.794;2024-02-21T00:03:01;3.80;99.90
27759;DHT22;15148;48.972;12.794;2024-02-21T00:08:04;3.80;99.90
27759;DHT22;15148;48.972;12.794;2024-02-21T00:13:06;3.70;99.90
27759;DHT22;15148;48.972;12.794;2024-02-21T00:18:08;3.60;99.90
27759;DHT22;15148;48.972;12.794;2024-02-21T00:23:13;3.60;99.90
27759;DHT22;15148;48.972;12.794;2024-02-21T00:28:14;3.50;99.90
27759;DHT22;15148;48.972;12.794;2024-02-21T00:33:17;3.60;99.90
27759;DHT22;15148;48.972;12.794;2024-02-21T00:38:19;3.50;99.90
27759;DHT22;15148;48.972;12.794;2024-02-21T00:43:21;3.60;99.90
27759;DHT22;15148;48.972;12.794;2024-02-21T00:48:25;3.60;99.90
27759;DHT22;15148;48.972;12.794;2024-02-21T00:53:27;3.60;99.90
27759;DHT22;15148;48.972;12.794;2024-02-21T00:58:29;3.60;99.90
27759;DHT22;15148;48.972;12.794;2024-02-21T01:03:31;3.70;99.90
27759;DHT22;15148;48.972;12.794;2024-02-21T01:08:33;3.70;99.90
27759;DHT22;15148;48.972;12.794;2024-02-21T01:13:35;3.70;99.90
27759;DHT22;15148;48.972;12.794;2024-02-21T01:18:37;3.70;99.90
27759;DHT22;15148;48.972;12.794;2024-02-21T01:23:41;3.60;99.90
27759;DHT22;15148;48.972;12.794;2024-02-21T01:28:43;3.60;99.90
27759;DHT22;15148;48.972;12.794;2024-02-21T01:33:45;3.70;99.90
27759;DHT22;15148;48.972;12.794;2024-02-21T01:38:47;3.70;99.90
27759;DHT22;15148;48.972;12.794;2024-02-21T01:43:49;3.60;99.90
27759;DHT22;15148;48.972;12.794;2024-02-21T01:48:51;3.60;99.90
27759;DHT22;15148;48.972;12.794;2024-02-21T01:53:55;3.60;99.90
27759;DHT22;15148;48.972;12.794;2024-02-21T01:58:57;3.70;99.90
27759;DHT22;15148;48.972;12.794;2024-02-21T02:03:59;3.70;99.90
27759;DHT22;15148;48.972;12.794;2024-02-21T02:09:01;3.80;99.90
27759;DHT22;15148;48.972;12.794;2024-02-21T02:14:03;3.80;99.90
27759;DHT22;15148;48.972;12.794;2024-02-21T02:19:05;3.80;99.90
27759;DHT22;15148;48.972;12.794;2024-02-21T02:24:07;3.80;99.90
27759;DHT22;15148;48.972;12.794;2024-02-21T02:29:09;3.80;99.90
27759;DHT22;15148;48.972;12.794;2024-02-21T02:34:11;3.70;99.90
27759;DHT22;15148;48.972;12.794;2024-02-21T02:39:13;3.70;99.90
27759;DHT22;15148;48.972;12.794;2024-02-21T02:44:15;3.70;99.90
27759;DHT22;15148;48.972;12.794;2024-02-21T02:49:18;3.70;99.90
27759;DHT22;15148;48.972;12.794;2024-02-21T02:54:20;3.50;99.90
27759;DHT22;15148;48.972;12.794;2024-02-21T02:59:22;3.50;99.90
27759;DHT22;15148;48.972;12.794;2024-02-21T03:04:23;3.40;99.90
27759;DHT22;15148;48.972;12.794;2024-02-21T03:09:26;3.40;99.90
27759;DHT22;15148;48.972;12.794;2024-02-21T03:14:28;3.40;99.90
27759;DHT22;15148;48.972;12.794;2024-02-21T03:19:30;3.40;99.90
27759;DHT22;15148;48.972;12.794;2024-02-21T03:24:32;3.50;99.90
27759;DHT22;15148;48.972;12.794;2024-02-21T03:29:34;3.50;99.90
27759;DHT22;15148;48.972;12.794;2024-02-21T03:34:36;3.50;99.90
27759;DHT22;15148;48.972;12.794;2024-02-21T03:39:38;3.50;99.90
27759;DHT22;15148;48.972;12.794;2024-02-21T03:44:40;3.50;99.90
27759;DHT22;15148;48.972;12.794;2024-02-21T03:49:42;3.60;99.90
27759;DHT22;15148;48.972;12.794;2024-02-21T03:54:44;3.60;99.90
27759;DHT22;15148;48.972;12.794;2024-02-21T03:59:49;3.60;99.90
27759;DHT22;15148;48.972;12.794;2024-02-21T04:04:51;3.70;99.90
27759;DHT22;15148;48.972;12.794;2024-02-21T04:09:53;3.70;99.90
27759;DHT22;15148;48.972;12.794;2024-02-21T04:14:55;3.80;99.90
27759;DHT22;15148;48.972;12.794;2024-02-21T04:20:03;3.80;99.90
27759;DHT22;15148;48.972;12.794;2024-02-21T04:25:07;3.80;99.90
27759;DHT22;15148;48.972;12.794;2024-02-21T04:30:09;3.90;99.90
27759;DHT22;15148;48.972;12.794;2024-02-21T04:35:11;3.90;99.90
27759;DHT22;15148;48.972;12.794;2024-02-21T04:40:13;4.00;99.90
27759;DHT22;15148;48.972;12.794;2024-02-21T04:45:16;4.10;99.90
27759;DHT22;15148;48.972;12.794;2024-02-21T04:50:19;4.10;99.90
27759;DHT22;15148;48.972;12.794;2024-02-21T04:55:21;4.10;99.90
27759;DHT22;15148;48.972;12.794;2024-02-21T05:00:23;4.20;99.90
27759;DHT22;15148;48.972;12.794;2024-02-21T05:05:25;4.20;99.90
27759;DHT22;15148;48.972;12.794;2024-02-21T05:10:27;4.20;99.90
27759;DHT22;15148;48.972;12.794;2024-02-21T05:15:30;4.30;99.90
27759;DHT22;15148;48.972;12.794;2024-02-21T05:20:33;4.30;99.90
27759;DHT22;15148;48.972;12.794;2024-02-21T05:25:35;4.30;99.90
27759;DHT22;15148;48.972;12.794;2024-02-21T05:30:37;4.40;99.90
27759;DHT22;15148;48.972;12.794;2024-02-21T05:35:39;4.30;99.90
27759;DHT22;15148;48.972;12.794;2024-02-21T05:40:41;4.30;99.90
27759;DHT22;15148;48.972;12.794;2024-02-21T05:45:43;4.40;99.90
27759;DHT22;15148;48.972;12.794;2024-02-21T05:50:45;4.30;99.90
27759;DHT22;15148;48.972;12.794;2024-02-21T05:55:47;4.40;99.90
27759;DHT22;15148;48.972;12.794;2024-02-21T06:00:49;4.40;99.90
27759;DHT22;15148;48.972;12.794;2024-02-21T06:05:51;4.40;99.90
27759;DHT22;15148;48.972;12.794;2024-02-21T06:10:52;4.40;99.90
27759;DHT22;15148;48.972;12.794;2024-02-21T06:15:58;4.40;99.90
27759;DHT22;15148;48.972;12.794;2024-02-21T06:21:00;4.40;99.90
27759;DHT22;15148;48.972;12.794;2024-02-21T06:26:02;4.40;99.90
27759;DHT22;15148;48.972;12.794;2024-02-21T06:31:04;4.40;99.90
27759;DHT22;15148;48.972;12.794;2024-02-21T06:36:06;4.50;99.90
27759;DHT22;15148;48.972;12.794;2024-02-21T06:41:18;4.50;99.90
27759;DHT22;15148;48.972;12.794;2024-02-21T06:46:28;4.50;99.90
27759;DHT22;15148;48.972;12.794;2024-02-21T06:51:31;4.50;99.90
27759;DHT22;15148;48.972;12.794;2024-02-21T06:56:33;4.60;99.90
27759;DHT22;15148;48.972;12.794;2024-02-21T07:01:35;4.60;99.90
27759;DHT22;15148;48.972;12.794;2024-02-21T07:06:37;4.60;99.90
27759;DHT22;15148;48.972;12.794;2024-02-21T07:11:39;4.70;99.90
27759;DHT22;15148;48.972;12.794;2024-02-21T07:16:41;4.70;99.90
27759;DHT22;15148;48.972;12.794;2024-02-21T07:21:43;4.80;99.90
27759;DHT22;15148;48.972;12.794;2024-02-21T07:26:45;4.90;99.90
27759;DHT22;15148;48.972;12.794;2024-02-21T07:31:48;5.00;99.90
27759;DHT22;15148;48.972;12.794;2024-02-21T07:36:50;5.10;99.90
27759;DHT22;15148;48.972;12.794;2024-02-21T07:41:53;5.10;99.90
27759;DHT22;15148;48.972;12.794;2024-02-21T07:46:55;5.20;99.90
27759;DHT22;15148;48.972;12.794;2024-02-21T07:51:57;5.20;99.90
27759;DHT22;15148;48.972;12.794;2024-02-21T07:56:58;5.30;99.90
27759;DHT22;15148;48.972;12.794;2024-02-21T08:02:00;5.40;99.90
27759;DHT22;15148;48.972;12.794;2024-02-21T08:07:03;5.50;99.90
27759;DHT22;15148;48.972;12.794;2024-02-21T08:12:06;5.50;99.90
27759;DHT22;15148;48.972;12.794;2024-02-21T08:17:08;5.50;99.90
27759;DHT22;15148;48.972;12.794;2024-02-21T08:22:10;5.50;99.90
27759;DHT22;15148;48.972;12.794;2024-02-21T08:27:12;5.50;99.90
27759;DHT22;15148;48.972;12.794;2024-02-21T08:32:14;5.60;99.90
27759;DHT22;15148;48.972;12.794;2024-02-21T08:37:16;5.70;99.90
27759;DHT22;15148;48.972;12.794;2024-02-21T08:42:21;5.80;99.90
27759;DHT22;15148;48.972;12.794;2024-02-21T08:47:23;5.90;99.90
27759;DHT22;15148;48.972;12.794;2024-02-21T08:52:24;6.00;99.90
27759;DHT22;15148;48.972;12.794;2024-02-21T08:57:27;6.20;99.90
27759;DHT22;15148;48.972;12.794;2024-02-21T09:02:29;6.20;99.90
27759;DHT22;15148;48.972;12.794;2024-02-21T09:07:31;6.40;99.90
27759;DHT22;15148;48.972;12.794;2024-02-21T09:12:33;6.60;99.90
27759;DHT22;15148;48.972;12.794;2024-02-21T09:17:35;6.80;99.90
27759;DHT22;15148;48.972;12.794;2024-02-21T09:22:37;7.00;99.90
27759;DHT22;15148;48.972;12.794;2024-02-21T09:27:43;7.00;99.90
27759;DHT22;15148;48.972;12.794;2024-02-21T09:32:45;7.40;99.90
27759;DHT22;15148;48.972;12.794;2024-02-21T09:37:48;7.60;99.90
27759;DHT22;15148;48.972;12.794;2024-02-21T09:42:59;7.60;99.90
27759;DHT22;15148;48.972;12.794;2024-02-21T09:53:12;7.50;99.90
27759;DHT22;15148;48.972;12.794;2024-02-21T09:58:15;7.70;99.90
27759;DHT22;15148;48.972;12.794;2024-02-21T10:03:18;7.90;99.90
27759;DHT22;15148;48.972;12.794;2024-02-21T10:08:20;8.00;99.90
27759;DHT22;15148;48.972;12.794;2024-02-21T10:13:27;8.00;99.90
27759;DHT22;15148;48.972;12.794;2024-02-21T10:18:31;8.10;99.90
27759;DHT22;15148;48.972;12.794;2024-02-21T10:23:49;8.20;99.90
27759;DHT22;15148;48.972;12.794;2024-02-21T10:28:52;8.10;99.90
27759;DHT22;15148;48.972;12.794;2024-02-21T10:33:57;8.20;99.90
27759;DHT22;15148;48.972;12.794;2024-02-21T10:39:00;8.30;99.90
27759;DHT22;15148;48.972;12.794;2024-02-21T10:44:05;8.40;99.90
27759;DHT22;15148;48.972;12.794;2024-02-21T10:49:10;8.50;99.90
27759;DHT22;15148;48.972;12.794;2024-02-21T10:54:30;8.70;99.90
27759;DHT22;15148;48.972;12.794;2024-02-21T10:59:37;8.80;99.90
27759;DHT22;15148;48.972;12.794;2024-02-21T11:04:41;9.00;99.90
27759;DHT22;15148;48.972;12.794;2024-02-21T11:09:51;9.20;99.90
27759;DHT22;15148;48.972;12.794;2024-02-21T11:15:06;9.20;99.90
27759;DHT22;15148;48.972;12.794;2024-02-21T11:20:13;9.40;99.90
27759;DHT22;15148;48.972;12.794;2024-02-21T11:25:21;9.20;99.90
27759;DHT22;15148;48.972;12.794;2024-02-21T11:30:27;9.40;99.90
27759;DHT22;15148;48.972;12.794;2024-02-21T11:35:35;9.40;99.90
27759;DHT22;15148;48.972;12.794;2024-02-21T11:40:43;9.60;99.90
27759;DHT22;15148;48.972;12.794;2024-02-21T11:45:46;9.70;99.90
27759;DHT22;15148;48.972;12.794;2024-02-21T11:50:57;9.70;99.90
27759;DHT22;15148;48.972;12.794;2024-02-21T11:55:59;9.80;99.90
27759;DHT22;15148;48.972;12.794;2024-02-21T12:01:01;9.90;99.90
27759;DHT22;15148;48.972;12.794;2024-02-21T12:06:06;10.00;99.90
27759;DHT22;15148;48.972;12.794;2024-02-21T12:11:22;10.10;99.90
27759;DHT22;15148;48.972;12.794;2024-02-21T12:16:24;10.20;99.90
27759;DHT22;15148;48.972;12.794;2024-02-21T12:21:29;10.20;99.90
27759;DHT22;15148;48.972;12.794;2024-02-21T12:26:31;10.20;99.90
27759;DHT22;15148;48.972;12.794;2024-02-21T12:31:33;10.20;99.90
27759;DHT22;15148;48.972;12.794;2024-02-21T12:36:41;10.30;99.90
27759;DHT22;15148;48.972;12.794;2024-02-21T12:41:44;10.30;99.90
27759;DHT22;15148;48.972;12.794;2024-02-21T12:46:46;10.30;99.90
27759;DHT22;15148;48.972;12.794;2024-02-21T12:51:53;10.30;99.90
27759;DHT22;15148;48.972;12.794;2024-02-21T12:56:55;10.30;99.90
27759;DHT22;15148;48.972;12.794;2024-02-21T13:01:57;10.30;99.90
27759;DHT22;15148;48.972;12.794;2024-02-21T13:06:59;10.20;99.90
27759;DHT22;15148;48.972;12.794;2024-02-21T13:12:02;10.20;99.90
27759;DHT22;15148;48.972;12.794;2024-02-21T13:17:04;10.20;99.90
27759;DHT22;15148;48.972;12.794;2024-02-21T13:22:06;10.30;99.90
27759;DHT22;15148;48.972;12.794;2024-02-21T13:27:09;10.40;99.90
27759;DHT22;15148;48.972;12.794;2024-02-21T13:32:11;10.40;99.90
27759;DHT22;15148;48.972;12.794;2024-02-21T13:37:13;10.30;99.90
27759;DHT22;15148;48.972;12.794;2024-02-21T13:42:16;10.30;99.90
27759;DHT22;15148;48.972;12.794;2024-02-21T13:47:19;10.20;99.90
27759;DHT22;15148;48.972;12.794;2024-02-21T13:52:23;10.10;99.90
27759;DHT22;15148;48.972;12.794;2024-02-21T13:57:28;10.10;99.90
27759;DHT22;15148;48.972;12.794;2024-02-21T14:02:30;10.10;99.90
27759;DHT22;15148;48.972;12.794;2024-02-21T14:07:33;10.10;99.90
27759;DHT22;15148;48.972;12.794;2024-02-21T14:12:35;10.00;99.90
27759;DHT22;15148;48.972;12.794;2024-02-21T14:17:37;10.10;99.90
27759;DHT22;15148;48.972;12.794;2024-02-21T14:22:39;10.00;99.90
27759;DHT22;15148;48.972;12.794;2024-02-21T14:27:41;9.90;99.90
27759;DHT22;15148;48.972;12.794;2024-02-21T14:32:44;9.80;99.90
27759;DHT22;15148;48.972;12.794;2024-02-21T14:37:47;9.70;99.90
27759;DHT22;15148;48.972;12.794;2024-02-21T14:42:54;9.60;99.90
27759;DHT22;15148;48.972;12.794;2024-02-21T14:47:56;9.60;99.90
27759;DHT22;15148;48.972;12.794;2024-02-21T14:52:58;9.60;99.90
27759;DHT22;15148;48.972;12.794;2024-02-21T14:58:00;9.60;99.90
27759;DHT22;15148;48.972;12.794;2024-02-21T15:03:02;9.50;99.90
27759;DHT22;15148;48.972;12.794;2024-02-21T15:08:04;9.40;99.90
27759;DHT22;15148;48.972;12.794;2024-02-21T15:13:07;9.40;99.90
27759;DHT22;15148;48.972;12.794;2024-02-21T15:18:09;9.40;99.90
27759;DHT22;15148;48.972;12.794;2024-02-21T15:23:11;9.30;99.90
27759;DHT22;15148;48.972;12.794;2024-02-21T15:28:13;9.20;99.90
27759;DHT22;15148;48.972;12.794;2024-02-21T15:33:15;9.20;99.90
27759;DHT22;15148;48.972;12.794;2024-02-21T15:38:17;9.10;99.90
27759;DHT22;15148;48.972;12.794;2024-02-21T15:43:21;9.10;99.90
27759;DHT22;15148;48.972;12.794;2024-02-21T15:48:22;9.00;99.90
27759;DHT22;15148;48.972;12.794;2024-02-21T15:53:27;9.00;99.90
27759;DHT22;15148;48.972;12.794;2024-02-21T15:58:28;8.90;99.90
27759;DHT22;15148;48.972;12.794;2024-02-21T16:03:31;8.80;99.90
27759;DHT22;15148;48.972;12.794;2024-02-21T16:08:33;8.70;99.90
27759;DHT22;15148;48.972;12.794;2024-02-21T16:13:38;8.50;99.90
27759;DHT22;15148;48.972;12.794;2024-02-21T16:18:40;8.40;99.90
27759;DHT22;15148;48.972;12.794;2024-02-21T16:23:42;8.30;99.90
27759;DHT22;15148;48.972;12.794;2024-02-21T16:28:44;8.10;99.90
27759;DHT22;15148;48.972;12.794;2024-02-21T16:33:46;8.00;99.90
27759;DHT22;15148;48.972;12.794;2024-02-21T16:38:50;7.80;99.90
27759;DHT22;15148;48.972;12.794;2024-02-21T16:43:55;7.70;99.90
27759;DHT22;15148;48.972;12.794;2024-02-21T16:48:56;7.60;99.90
27759;DHT22;15148;48.972;12.794;2024-02-21T16:53:58;7.40;99.90
27759;DHT22;15148;48.972;12.794;2024-02-21T16:59:03;7.20;99.90
27759;DHT22;15148;48.972;12.794;2024-02-21T17:04:05;7.10;99.90
27759;DHT22;15148;48.972;12.794;2024-02-21T17:09:08;7.00;99.90
27759;DHT22;15148;48.972;12.794;2024-02-21T17:14:11;6.90;99.90
27759;DHT22;15148;48.972;12.794;2024-02-21T17:19:14;6.70;99.90
27759;DHT22;15148;48.972;12.794;2024-02-21T17:24:16;6.70;99.90
27759;DHT22;15148;48.972;12.794;2024-02-21T17:29:18;6.60;99.90
27759;DHT22;15148;48.972;12.794;2024-02-21T17:34:20;6.60;99.90
27759;DHT22;15148;48.972;12.794;2024-02-21T17:39:22;6.50;99.90
27759;DHT22;15148;48.972;12.794;2024-02-21T17:44:24;6.50;99.90
27759;DHT22;15148;48.972;12.794;2024-02-21T17:49:26;6.50;99.90
27759;DHT22;15148;48.972;12.794;2024-02-21T17:54:29;6.40;99.90
27759;DHT22;15148;48.972;12.794;2024-02-21T17:59:31;6.30;99.90
27759;DHT22;15148;48.972;12.794;2024-02-21T18:04:33;6.30;99.90
27759;DHT22;15148;48.972;12.794;2024-02-21T18:09:35;6.20;99.90
27759;DHT22;15148;48.972;12.794;2024-02-21T18:14:38;6.20;99.90
27759;DHT22;15148;48.972;12.794;2024-02-21T18:19:40;6.20;99.90
27759;DHT22;15148;48.972;12.794;2024-02-21T18:24:42;6.20;99.90
27759;DHT22;15148;48.972;12.794;2024-02-21T18:29:45;6.10;99.90
27759;DHT22;15148;48.972;12.794;2024-02-21T18:34:49;6.00;99.90
27759;DHT22;15148;48.972;12.794;2024-02-21T18:39:51;6.00;99.90
27759;DHT22;15148;48.972;12.794;2024-02-21T18:44:53;5.90;99.90
27759;DHT22;15148;48.972;12.794;2024-02-21T18:49:56;5.90;99.90
27759;DHT22;15148;48.972;12.794;2024-02-21T18:54:58;5.80;99.90
27759;DHT22;15148;48.972;12.794;2024-02-21T19:00:00;5.80;99.90
27759;DHT22;15148;48.972;12.794;2024-02-21T19:05:08;5.80;99.90
27759;DHT22;15148;48.972;12.794;2024-02-21T19:10:11;5.70;99.90
27759;DHT22;15148;48.972;12.794;2024-02-21T19:15:15;5.60;99.90
27759;DHT22;15148;48.972;12.794;2024-02-21T19:20:17;5.50;99.90
27759;DHT22;15148;48.972;12.794;2024-02-21T19:25:19;5.50;99.90
27759;DHT22;15148;48.972;12.794;2024-02-21T19:30:24;5.50;99.90
27759;DHT22;15148;48.972;12.794;2024-02-21T19:35:29;5.50;99.90
27759;DHT22;15148;48.972;12.794;2024-02-21T19:40:32;5.40;99.90
27759;DHT22;15148;48.972;12.794;2024-02-21T19:45:34;5.50;99.90
27759;DHT22;15148;48.972;12.794;2024-02-21T19:50:36;5.50;99.90
27759;DHT22;15148;48.972;12.794;2024-02-21T19:55:40;5.50;99.90
27759;DHT22;15148;48.972;12.794;2024-02-21T20:00:42;5.50;99.90
27759;DHT22;15148;48.972;12.794;2024-02-21T20:05:44;5.50;99.90
27759;DHT22;15148;48.972;12.794;2024-02-21T20:10:46;5.40;99.90
27759;DHT22;15148;48.972;12.794;2024-02-21T20:15:50;5.50;99.90
27759;DHT22;15148;48.972;12.794;2024-02-21T20:20:51;5.50;99.90
27759;DHT22;15148;48.972;12.794;2024-02-21T20:25:54;5.50;99.90
27759;DHT22;15148;48.972;12.794;2024-02-21T20:30:57;5.60;99.90
27759;DHT22;15148;48.972;12.794;2024-02-21T20:35:59;5.50;99.90
27759;DHT22;15148;48.972;12.794;2024-02-21T20:41:01;5.50;99.90
27759;DHT22;15148;48.972;12.794;2024-02-21T20:46:04;5.60;99.90
27759;DHT22;15148;48.972;12.794;2024-02-21T20:51:06;5.50;99.90
27759;DHT22;15148;48.972;12.794;2024-02-21T20:56:08;5.50;99.90
27759;DHT22;15148;48.972;12.794;2024-02-21T21:01:12;5.50;99.90
27759;DHT22;15148;48.972;12.794;2024-02-21T21:06:15;5.50;99.90
27759;DHT22;15148;48.972;12.794;2024-02-21T21:11:17;5.50;99.90
27759;DHT22;15148;48.972;12.794;2024-02-21T21:16:23;5.50;99.90
27759;DHT22;15148;48.972;12.794;2024-02-21T21:21:25;5.60;99.90
27759;DHT22;15148;48.972;12.794;2024-02-21T21:26:27;5.60;99.90
27759;DHT22;15148;48.972;12.794;2024-02-21T21:31:29;5.60;99.90
27759;DHT22;15148;48.972;12.794;2024-02-21T21:36:31;5.70;99.90
27759;DHT22;15148;48.972;12.794;2024-02-21T21:41:33;5.70;99.90
27759;DHT22;15148;48.972;12.794;2024-02-21T21:46:36;5.60;99.90
27759;DHT22;15148;48.972;12.794;2024-02-21T21:51:41;5.60;99.90
27759;DHT22;15148;48.972;12.794;2024-02-21T21:56:43;5.70;99.90
27759;DHT22;15148;48.972;12.794;2024-02-21T22:01:45;5.70;99.90
27759;DHT22;15148;48.972;12.794;2024-02-21T22:06:47;5.70;99.90
27759;DHT22;15148;48.972;12.794;2024-02-21T22:11:49;5.70;99.90
27759;DHT22;15148;48.972;12.794;2024-02-21T22:16:51;5.70;99.90
27759;DHT22;15148;48.972;12.794;2024-02-21T22:21:53;5.70;99.90
27759;DHT22;15148;48.972;12.794;2024-02-21T22:26:55;5.80;99.90
27759;DHT22;15148;48.972;12.794;2024-02-21T22:31:57;5.80;99.90
27759;DHT22;15148;48.972;12.794;2024-02-21T22:36:59;5.90;99.90
27759;DHT22;15148;48.972;12.794;2024-02-21T22:42:01;5.90;99.90
27759;DHT22;15148;48.972;12.794;2024-02-21T22:47:03;5.80;99.90
27759;DHT22;15148;48.972;12.794;2024-02-21T22:52:05;5.80;99.90
27759;DHT22;15148;48.972;12.794;2024-02-21T22:57:09;5.90;99.90
27759;DHT22;15148;48.972;12.794;2024-02-21T23:02:11;5.80;99.90
27759;DHT22;15148;48.972;12.794;2024-02-21T23:07:13;5.80;99.90
27759;DHT22;15148;48.972;12.794;2024-02-21T23:12:15;5.80;99.90
27759;DHT22;15148;48.972;12.794;2024-02-21T23:17:20;5.80;99.90
27759;DHT22;15148;48.972;12.794;2024-02-21T23:22:22;5.80;99.90
27759;DHT22;15148;48.972;12.794;2024-02-21T23:27:24;5.70;99.90
27759;DHT22;15148;48.972;12.794;2024-02-21T23:32:26;5.80;99.90
27759;DHT22;15148;48.972;12.794;2024-02-21T23:37:28;5.80;99.90
27759;DHT22;15148;48.972;12.794;2024-02-21T23:42:31;5.80;99.90
27759;DHT22;15148;48.972;12.794;2024-02-21T23:47:33;5.80;99.90
27759;DHT22;15148;48.972;12.794;2024-02-21T23:52:35;5.90;99.90
27759;DHT22;15148;48.972;12.794;2024-02-21T23:57:37;5.90;99.90
